createdAt,value
2022-09-15T00:00:53.509Z,4.15
2022-09-15T00:03:56.685Z,3.47
2022-09-15T00:06:59.425Z,3.42
2022-09-15T00:10:03.891Z,3.40
2022-09-15T00:13:06.470Z,3.40
2022-09-15T00:16:14.789Z,3.50
2022-09-15T00:19:18.037Z,4.75
2022-09-15T00:25:24.032Z,4.90
2022-09-15T00:28:27.289Z,5.32
2022-09-15T00:34:37.446Z,3.97
2022-09-15T00:37:40.127Z,4.40
2022-09-15T00:40:54.004Z,3.50
2022-09-15T00:43:56.980Z,3.62
2022-09-15T00:47:18.216Z,3.30
2022-09-15T00:50:22.474Z,4.53
2022-09-15T00:56:30.237Z,3.05
2022-09-15T00:59:37.065Z,4.30
2022-09-15T01:02:43.560Z,4.68
2022-09-15T01:05:53.725Z,4.30
2022-09-15T01:09:17.819Z,3.30
2022-09-15T01:12:22.458Z,3.72
2022-09-15T01:15:37.199Z,3.87
2022-09-15T01:19:01.376Z,4.28
2022-09-15T01:22:29.041Z,4.10
2022-09-15T01:26:06.261Z,3.80
2022-09-15T01:29:38.521Z,3.22
2022-09-15T01:33:03.311Z,4.03
2022-09-15T01:36:24.259Z,3.67
2022-09-15T01:39:35.142Z,4.00
2022-09-15T01:42:44.660Z,3.33
2022-09-15T01:45:49.683Z,3.53
2022-09-15T01:48:55.084Z,3.30
2022-09-15T01:51:58.089Z,3.60
2022-09-15T01:55:07.281Z,3.30
2022-09-15T01:58:10.357Z,3.10
2022-09-15T02:01:19.952Z,2.50
2022-09-15T02:04:34.021Z,2.92
2022-09-15T02:08:06.194Z,2.47
2022-09-15T02:11:13.019Z,3.58
2022-09-15T02:14:23.026Z,2.97
2022-09-15T02:17:29.175Z,2.87
2022-09-15T02:20:40.724Z,3.25
2022-09-15T02:23:53.661Z,3.62
2022-09-15T02:26:57.890Z,3.30
2022-09-15T02:30:07.917Z,2.53
2022-09-15T02:33:15.909Z,3.00
2022-09-15T02:36:20.859Z,2.97
2022-09-15T02:39:29.238Z,2.72
2022-09-15T02:42:32.948Z,2.80
2022-09-15T02:45:36.232Z,2.60
2022-09-15T02:48:39.371Z,2.62
2022-09-15T02:51:42.165Z,1.60
2022-09-15T02:54:45.196Z,2.05
2022-09-15T02:57:48.282Z,2.28
2022-09-15T03:00:52.791Z,1.95
2022-09-15T03:03:55.604Z,1.80
2022-09-15T03:06:58.888Z,2.37
2022-09-15T03:10:01.629Z,1.67
2022-09-15T03:13:08.582Z,2.25
2022-09-15T03:16:13.011Z,1.77
2022-09-15T03:19:15.790Z,1.80
2022-09-15T03:22:18.552Z,1.75
2022-09-15T03:25:21.957Z,2.33
2022-09-15T03:28:25.224Z,2.10
2022-09-15T03:31:28.391Z,2.50
2022-09-15T03:34:31.150Z,2.05
2022-09-15T03:37:34.787Z,2.75
2022-09-15T03:40:37.828Z,2.70
2022-09-15T03:43:41.500Z,2.58
2022-09-15T03:46:44.518Z,3.17
2022-09-15T03:49:47.614Z,3.33
2022-09-15T03:52:50.517Z,3.08
2022-09-15T03:55:53.633Z,2.70
2022-09-15T03:59:57.927Z,3.33
2022-09-15T04:03:01.390Z,2.62
2022-09-15T04:06:04.563Z,2.50
2022-09-15T04:09:07.533Z,2.22
2022-09-15T04:12:10.917Z,2.70
2022-09-15T04:18:16.144Z,1.77
2022-09-15T04:21:22.805Z,1.60
2022-09-15T04:24:25.641Z,2.15
2022-09-15T04:30:31.865Z,1.75
2022-09-15T04:33:35.975Z,2.30
2022-09-15T04:36:38.872Z,2.17
2022-09-15T04:39:41.414Z,1.80
2022-09-15T04:45:46.935Z,2.47
2022-09-15T04:48:50.056Z,2.40
2022-09-15T04:51:55.606Z,2.10
2022-09-15T04:54:58.642Z,2.90
2022-09-15T04:58:02.484Z,2.67
2022-09-15T05:01:13.985Z,2.28
2022-09-15T05:04:17.061Z,2.20
2022-09-15T05:07:20.477Z,2.85
2022-09-15T05:10:23.250Z,3.00
2022-09-15T05:16:30.105Z,2.00
2022-09-15T05:22:40.909Z,2.37
2022-09-15T05:25:53.732Z,2.03
2022-09-15T05:28:57.377Z,2.90
2022-09-15T05:32:00.466Z,4.75
2022-09-15T05:35:03.806Z,3.12
2022-09-15T05:38:06.917Z,3.55
2022-09-15T05:41:17.899Z,3.72
2022-09-15T05:44:23.854Z,2.97
2022-09-15T05:47:26.873Z,3.10
2022-09-15T05:50:33.103Z,2.85
2022-09-15T05:53:36.508Z,2.62
2022-09-15T05:56:39.615Z,2.90
2022-09-15T05:59:43.856Z,3.12
2022-09-15T06:02:46.873Z,3.47
2022-09-15T06:09:01.786Z,3.10
2022-09-15T06:12:05.763Z,2.72
2022-09-15T06:15:10.153Z,2.62
2022-09-15T06:18:13.723Z,2.90
2022-09-15T06:21:18.949Z,2.78
2022-09-15T06:24:22.115Z,2.83
2022-09-15T06:30:28.099Z,3.00
2022-09-15T06:33:30.794Z,3.50
2022-09-15T06:36:36.734Z,3.30
2022-09-15T06:39:40.052Z,3.42
2022-09-15T06:42:42.833Z,3.00
2022-09-15T06:45:47.271Z,3.03
2022-09-15T06:51:54.085Z,3.03
2022-09-15T06:57:59.771Z,2.87
2022-09-15T07:01:05.767Z,3.45
2022-09-15T07:04:09.719Z,3.45
2022-09-15T07:07:12.622Z,2.87
2022-09-15T07:10:16.080Z,3.22
2022-09-15T07:13:19.209Z,3.72
2022-09-15T07:16:22.790Z,3.40
2022-09-15T07:19:25.678Z,2.47
2022-09-15T07:22:28.335Z,3.55
2022-09-15T07:28:34.946Z,2.72
2022-09-15T07:31:38.739Z,2.87
2022-09-15T07:34:42.069Z,2.90
2022-09-15T07:37:45.210Z,2.10
2022-09-15T07:43:54.971Z,2.50
2022-09-15T07:46:57.597Z,1.85
2022-09-15T07:50:00.752Z,2.62
2022-09-15T07:53:03.994Z,2.22
2022-09-15T07:56:07.938Z,2.50
2022-09-15T07:59:10.899Z,3.03
2022-09-15T08:02:20.035Z,2.08
2022-09-15T08:05:28.040Z,2.00
2022-09-15T08:08:30.591Z,2.53
2022-09-15T08:11:33.810Z,2.80
2022-09-15T08:14:36.589Z,2.05
2022-09-15T08:17:39.615Z,2.28
2022-09-15T08:26:49.028Z,2.57
2022-09-15T08:29:52.055Z,2.33
2022-09-15T08:32:54.799Z,2.28
2022-09-15T08:36:08.116Z,2.55
2022-09-15T08:39:11.208Z,4.65
2022-09-15T08:42:24.413Z,3.70
2022-09-15T08:45:32.245Z,2.70
2022-09-15T08:48:48.781Z,3.47
2022-09-15T08:51:52.594Z,2.70
2022-09-15T08:54:58.316Z,2.37
2022-09-15T08:58:01.149Z,2.10
2022-09-15T09:01:11.184Z,5.75
2022-09-15T09:04:23.445Z,2.12
2022-09-15T09:11:08.519Z,2.37
2022-09-15T09:14:22.028Z,2.22
2022-09-15T09:17:36.889Z,2.08
2022-09-15T09:21:05.153Z,1.70
2022-09-15T09:24:16.085Z,1.52
2022-09-15T09:27:33.831Z,2.40
2022-09-15T09:30:36.996Z,2.37
2022-09-15T09:34:26.427Z,2.03
2022-09-15T09:37:30.051Z,1.35
2022-09-15T09:40:33.677Z,2.12
2022-09-15T09:43:37.031Z,1.80
2022-09-15T09:46:41.201Z,2.08
2022-09-15T09:49:49.316Z,2.53
2022-09-15T09:52:52.686Z,1.42
2022-09-15T09:56:17.990Z,1.20
2022-09-15T09:59:47.539Z,1.08
2022-09-15T10:02:50.568Z,1.20
2022-09-15T10:06:24.142Z,1.10
2022-09-15T10:12:41.180Z,1.10
2022-09-15T10:15:43.912Z,1.12
2022-09-15T10:18:53.586Z,1.30
2022-09-15T10:21:59.897Z,1.15
2022-09-15T10:25:21.128Z,0.80
2022-09-15T10:28:26.148Z,1.45
2022-09-15T10:31:32.725Z,1.42
2022-09-15T10:34:36.228Z,1.55
2022-09-15T10:37:45.314Z,1.40
2022-09-15T10:40:54.661Z,0.90
2022-09-15T10:44:13.084Z,1.50
2022-09-15T10:47:23.355Z,1.92
2022-09-15T10:50:31.810Z,1.60
2022-09-15T10:54:03.864Z,2.58
2022-09-15T10:57:37.748Z,2.30
2022-09-15T11:00:47.044Z,1.58
2022-09-15T11:04:21.388Z,1.95
2022-09-15T11:07:38.817Z,1.40
2022-09-15T11:10:53.263Z,1.67
2022-09-15T11:14:06.226Z,3.08
2022-09-15T11:17:23.432Z,2.08
2022-09-15T11:21:01.472Z,1.85
2022-09-15T11:24:23.978Z,1.73
2022-09-15T11:28:04.462Z,2.55
2022-09-15T11:31:19.153Z,2.28
2022-09-15T11:34:29.967Z,1.90
2022-09-15T11:37:48.268Z,2.33
2022-09-15T11:41:08.809Z,2.87
2022-09-15T11:44:22.856Z,2.37
2022-09-15T11:47:38.619Z,2.90
2022-09-15T11:50:46.257Z,2.75
2022-09-15T11:53:57.988Z,3.33
2022-09-15T11:57:01.190Z,2.55
2022-09-15T12:00:13.071Z,2.10
2022-09-15T12:03:26.373Z,2.22
2022-09-15T12:06:51.703Z,2.70
2022-09-15T12:09:56.482Z,2.17
2022-09-15T12:13:00.545Z,3.42
2022-09-15T12:16:04.154Z,2.83
2022-09-15T12:19:18.307Z,2.25
2022-09-15T12:22:47.613Z,2.50
2022-09-15T12:26:17.408Z,2.90
2022-09-15T12:29:26.354Z,2.75
2022-09-15T12:32:33.350Z,2.92
2022-09-15T12:35:36.544Z,2.20
2022-09-15T12:38:39.084Z,2.37
2022-09-15T12:44:54.250Z,2.67
2022-09-15T12:48:06.775Z,2.67
2022-09-15T12:51:10.885Z,2.65
2022-09-15T12:54:23.278Z,2.40
2022-09-15T12:57:36.905Z,2.95
2022-09-15T13:01:07.136Z,2.83
2022-09-15T13:04:13.817Z,2.85
2022-09-15T13:07:22.175Z,4.18
2022-09-15T13:10:36.571Z,1.77
2022-09-15T13:14:07.580Z,1.33
2022-09-15T13:17:17.186Z,1.73
2022-09-15T13:20:29.721Z,1.70
2022-09-15T13:23:38.084Z,1.52
2022-09-15T13:26:44.744Z,1.50
2022-09-15T13:29:59.856Z,2.25
2022-09-15T13:33:17.881Z,1.60
2022-09-15T13:40:20.359Z,1.50
2022-09-15T13:43:43.588Z,1.90
2022-09-15T13:46:52.545Z,1.98
2022-09-15T13:50:13.157Z,1.35
2022-09-15T13:53:44.597Z,2.20
2022-09-15T13:56:53.149Z,2.35
2022-09-15T13:59:55.729Z,2.20
2022-09-15T14:03:01.605Z,2.67
2022-09-15T14:06:22.266Z,2.58
2022-09-15T14:09:30.012Z,2.33
2022-09-15T14:12:36.651Z,2.78
2022-09-15T14:15:39.110Z,2.40
2022-09-15T14:18:44.213Z,2.60
2022-09-15T14:21:51.340Z,2.92
2022-09-15T14:24:57.824Z,2.47
2022-09-15T14:28:00.215Z,4.37
2022-09-15T14:31:03.237Z,4.12
2022-09-15T14:34:14.481Z,2.85
2022-09-15T14:37:35.589Z,3.30
2022-09-15T14:40:39.974Z,3.72
2022-09-15T14:43:42.882Z,4.55
2022-09-15T14:46:45.271Z,3.80
2022-09-15T14:49:48.558Z,2.85
2022-09-15T14:53:16.280Z,5.53
2022-09-15T14:56:24.944Z,4.50
2022-09-15T14:59:31.950Z,3.20
2022-09-15T15:03:14.883Z,3.20
2022-09-15T15:06:30.048Z,2.30
2022-09-15T15:09:47.055Z,3.05
2022-09-15T15:12:55.426Z,2.20
2022-09-15T15:15:58.499Z,2.40
2022-09-15T15:19:01.588Z,2.65
2022-09-15T15:22:13.561Z,3.03
2022-09-15T15:25:20.819Z,2.80
2022-09-15T15:28:37.450Z,2.87
2022-09-15T15:31:40.315Z,4.07
2022-09-15T15:38:06.809Z,3.05
2022-09-15T15:41:19.963Z,3.20
2022-09-15T15:44:22.293Z,2.80
2022-09-15T15:47:25.675Z,3.33
2022-09-15T15:50:28.405Z,2.85
2022-09-15T15:53:31.474Z,2.10
